Terminal Aerodrome Forecast
Issued by NWS

Current Version | Previous Version | Text Only | Print | Product List | Glossary On
Versions: 1 2 3 4 5 6 7 8 9 10 11 12 13 14
000
FTUS44 KEPZ 312300
TAFLRU
TAF
KLRU 312336Z 0100/0124 14012KT P6SM SCT070 BKN220
     FM010500 13008KT P6SM VCSH SCT050 BKN200
     FM011400 15010KT P6SM SCT040 SCT250
     FM011900 18010G18KT P6SM FEW050 SCT080 OVC180=

USA.gov is the U.S. government's official web portal to all federal, state and local government web resources and services.